Time;durP1;ratioP1;P1;durP2;ratioP2;P2;SDS_P1;SDS_P2;PMS_P1;PMS_P2;Temp;Humidity;BMP_temperature;BMP_pressure;BME280_temperature;BME280_humidity;BME280_pressure;Samples;Min_cycle;Max_cycle;Signal;HPM_P1;HPM_P2
2023/08/14 00:01:45;;;;;;;9.07;8.77;;;21.20;99.90;;;;;;4998499;28;20236;-78
2023/08/14 00:04:12;;;;;;;8.60;8.40;;;21.20;99.90;;;;;;4997937;28;20236;-78
2023/08/14 00:06:39;;;;;;;8.80;8.50;;;21.20;99.90;;;;;;4996975;28;20233;-79
2023/08/14 00:09:06;;;;;;;9.00;8.70;;;21.20;99.90;;;;;;4996784;28;20698;-78
2023/08/14 00:11:34;;;;;;;8.90;8.60;;;21.20;99.90;;;;;;4997055;28;20631;-79
2023/08/14 00:14:01;;;;;;;9.00;8.70;;;21.10;99.90;;;;;;4989840;28;20332;-78
2023/08/14 00:16:28;;;;;;;8.98;8.68;;;21.10;99.90;;;;;;5002583;28;20267;-79
2023/08/14 00:18:56;;;;;;;9.10;8.80;;;21.10;99.90;;;;;;5016639;28;20228;-83
2023/08/14 00:21:24;;;;;;;9.00;8.70;;;21.10;99.90;;;;;;4998648;28;20256;-81
2023/08/14 00:23:51;;;;;;;9.10;8.80;;;21.10;99.90;;;;;;4999834;28;20228;-81
2023/08/14 00:26:18;;;;;;;8.98;8.68;;;21.10;99.90;;;;;;5007493;28;20235;-81
2023/08/14 00:28:47;;;;;;;9.00;8.70;;;21.20;99.90;;;;;;5005274;28;20252;-80
2023/08/14 00:31:16;;;;;;;8.95;8.65;;;21.20;99.90;;;;;;5008188;28;20259;-80
2023/08/14 00:33:43;;;;;;;8.77;8.48;;;21.20;99.90;;;;;;5016303;28;20225;-80
2023/08/14 00:36:10;;;;;;;8.90;8.60;;;21.20;99.90;;;;;;5015628;28;20232;-81
2023/08/14 00:38:37;;;;;;;9.00;8.70;;;21.20;99.90;;;;;;5004819;28;20328;-80
2023/08/14 00:41:05;;;;;;;8.63;8.43;;;21.20;99.90;;;;;;5000601;28;20232;-81
2023/08/14 00:43:32;;;;;;;8.90;8.60;;;21.20;99.90;;;;;;5013391;28;20275;-80
2023/08/14 00:46:02;;;;;;;8.75;8.50;;;21.20;99.90;;;;;;5010458;28;20333;-84
2023/08/14 00:48:30;;;;;;;8.68;8.48;;;21.20;99.90;;;;;;5004114;28;20256;-81
2023/08/14 00:50:58;;;;;;;8.90;8.60;;;21.20;99.90;;;;;;4999882;28;20244;-81
2023/08/14 00:53:28;;;;;;;8.90;8.60;;;21.30;99.90;;;;;;5000534;28;20296;-81
2023/08/14 00:55:56;;;;;;;8.68;8.48;;;21.30;99.90;;;;;;5008992;28;20307;-82
2023/08/14 00:58:24;;;;;;;8.90;8.60;;;21.20;99.90;;;;;;5001882;28;20315;-81
2023/08/14 01:00:51;;;;;;;8.60;8.40;;;21.20;99.90;;;;;;5011620;28;20397;-79
2023/08/14 01:03:22;;;;;;;8.80;8.50;;;21.20;99.90;;;;;;5003561;28;20231;-81
2023/08/14 01:05:49;;;;;;;9.00;8.70;;;21.10;99.90;;;;;;5013704;28;20241;-81
2023/08/14 01:08:16;;;;;;;9.18;8.88;;;21.10;99.90;;;;;;5015554;28;20238;-81
2023/08/14 01:10:57;;;;;;;9.05;8.75;;;21.00;99.90;;;;;;5005833;28;20243;-81
2023/08/14 01:13:33;;;;;;;9.20;8.90;;;20.90;99.90;;;;;;5008945;28;21076;-82
2023/08/14 01:16:07;;;;;;;9.00;8.70;;;20.90;99.90;;;;;;5017670;28;20239;-79
2023/08/14 01:18:38;;;;;;;9.13;8.82;;;20.80;99.90;;;;;;5004268;28;20316;-80
2023/08/14 01:21:19;;;;;;;9.00;8.70;;;20.80;99.90;;;;;;5012408;28;20237;-80
2023/08/14 01:23:54;;;;;;;9.00;8.70;;;20.90;99.90;;;;;;5004516;28;20237;-80
2023/08/14 01:26:23;;;;;;;8.90;8.60;;;20.90;99.90;;;;;;5002767;28;20235;-82
2023/08/14 01:28:53;;;;;;;8.65;8.43;;;21.00;99.90;;;;;;5010021;28;20263;-80
2023/08/14 01:31:20;;;;;;;8.80;8.50;;;21.00;99.90;;;;;;5014261;28;20239;-80
2023/08/14 01:33:48;;;;;;;9.00;8.70;;;21.00;99.90;;;;;;5004776;28;20257;-80
2023/08/14 01:36:22;;;;;;;8.55;8.35;;;21.00;99.90;;;;;;5017341;28;20270;-79
2023/08/14 01:38:59;;;;;;;8.90;8.60;;;20.80;99.90;;;;;;5007759;28;20236;-80
2023/08/14 01:41:34;;;;;;;8.93;8.63;;;20.80;99.90;;;;;;5010555;28;20319;-82
2023/08/14 01:44:05;;;;;;;9.07;8.77;;;20.80;99.90;;;;;;5012243;28;20260;-81
2023/08/14 01:46:35;;;;;;;9.20;8.90;;;20.80;99.90;;;;;;5003926;28;20236;-81
2023/08/14 01:49:03;;;;;;;8.93;8.63;;;20.90;99.90;;;;;;5016095;28;20312;-81
2023/08/14 01:51:31;;;;;;;9.10;8.80;;;20.90;99.90;;;;;;5009071;28;20237;-82
2023/08/14 01:53:58;;;;;;;9.10;8.80;;;20.90;99.90;;;;;;5012579;28;20233;-80
2023/08/14 01:56:27;;;;;;;9.00;8.70;;;21.00;99.90;;;;;;5021872;28;20243;-80
2023/08/14 01:58:54;;;;;;;9.00;8.70;;;21.00;99.90;;;;;;5022865;28;20239;-80
2023/08/14 02:01:21;;;;;;;9.10;8.80;;;21.00;99.90;;;;;;5021858;28;20242;-80
2023/08/14 02:03:48;;;;;;;9.02;8.73;;;21.00;99.90;;;;;;5022642;28;20228;-79
2023/08/14 02:06:15;;;;;;;9.00;8.70;;;21.00;99.90;;;;;;5022637;28;20311;-80
2023/08/14 02:08:42;;;;;;;9.20;8.90;;;21.00;99.90;;;;;;5023365;28;20231;-79
2023/08/14 02:11:09;;;;;;;8.93;8.63;;;20.90;99.90;;;;;;5022131;28;20238;-81
2023/08/14 02:13:38;;;;;;;8.90;8.60;;;20.90;99.90;;;;;;5022415;28;20230;-81
2023/08/14 02:16:05;;;;;;;8.90;8.60;;;20.90;99.90;;;;;;5022777;28;20391;-81
2023/08/14 02:18:32;;;;;;;9.00;8.70;;;20.90;99.90;;;;;;5023691;28;20294;-81
2023/08/14 02:20:59;;;;;;;9.00;8.70;;;20.90;99.90;;;;;;5020706;28;20232;-81
2023/08/14 02:23:26;;;;;;;8.90;8.60;;;21.00;99.90;;;;;;5021661;28;20246;-80
2023/08/14 02:25:55;;;;;;;9.00;8.70;;;21.00;99.90;;;;;;5021273;28;20240;-80
2023/08/14 02:28:23;;;;;;;8.80;8.50;;;21.00;99.90;;;;;;5018126;28;20219;-81
2023/08/14 02:30:51;;;;;;;9.00;8.70;;;20.90;99.90;;;;;;5006572;28;20228;-81
2023/08/14 02:33:18;;;;;;;8.95;8.65;;;20.90;99.90;;;;;;5014296;28;20239;-80
2023/08/14 02:35:46;;;;;;;9.00;8.70;;;20.80;99.90;;;;;;5013472;28;20247;-80
2023/08/14 02:38:13;;;;;;;8.82;8.52;;;20.80;99.90;;;;;;5006368;28;20236;-80
2023/08/14 02:40:40;;;;;;;8.82;8.52;;;20.80;99.90;;;;;;5013585;28;20234;-81
2023/08/14 02:43:07;;;;;;;8.90;8.60;;;20.80;99.90;;;;;;5002670;28;20225;-82
2023/08/14 02:52:57;;;;;;;8.73;8.43;;;20.80;99.90;;;;;;5001878;28;20793;-79
2023/08/14 02:55:26;;;;;;;8.63;8.32;;;20.70;99.90;;;;;;5002048;28;20236;-80
2023/08/14 02:57:53;;;;;;;8.68;8.38;;;20.60;99.90;;;;;;5002917;28;20232;-82
2023/08/14 03:00:21;;;;;;;8.70;8.40;;;20.50;99.90;;;;;;5011884;28;20239;-80
2023/08/14 03:02:48;;;;;;;8.50;8.30;;;20.50;99.90;;;;;;5022125;28;20278;-80
2023/08/14 03:05:15;;;;;;;8.50;8.30;;;20.50;99.90;;;;;;5022037;28;20236;-81
2023/08/14 03:07:42;;;;;;;8.88;8.57;;;20.50;99.90;;;;;;5022172;28;20295;-80
2023/08/14 03:10:11;;;;;;;8.90;8.60;;;20.60;99.90;;;;;;5022885;28;20241;-80
2023/08/14 03:12:38;;;;;;;8.70;8.40;;;20.50;99.90;;;;;;5022882;28;20229;-80
2023/08/14 03:15:06;;;;;;;8.70;8.40;;;20.50;99.90;;;;;;5030235;28;20222;-82
2023/08/14 03:17:34;;;;;;;8.50;8.30;;;20.50;99.90;;;;;;5025672;28;20251;-80
2023/08/14 03:20:03;;;;;;;8.82;8.52;;;20.50;99.90;;;;;;5023977;28;20264;-79
2023/08/14 03:22:30;;;;;;;8.77;8.48;;;20.40;99.90;;;;;;5020626;28;20353;-79
2023/08/14 03:24:57;;;;;;;8.95;8.65;;;20.40;99.90;;;;;;5020766;28;20220;-79
2023/08/14 03:27:26;;;;;;;8.80;8.50;;;20.40;99.90;;;;;;5021611;28;20238;-79
2023/08/14 03:29:53;;;;;;;8.90;8.60;;;20.30;99.90;;;;;;5020674;28;20315;-80
2023/08/14 03:32:20;;;;;;;8.27;8.07;;;20.30;99.90;;;;;;5020764;28;20292;-79
2023/08/14 03:34:47;;;;;;;8.52;8.30;;;20.30;99.90;;;;;;5011848;28;20233;-79
2023/08/14 03:37:14;;;;;;;8.40;8.20;;;20.40;99.90;;;;;;4999910;28;20241;-80
2023/08/14 03:39:41;;;;;;;9.13;8.82;;;20.40;99.90;;;;;;4996256;28;20229;-79
2023/08/14 03:42:08;;;;;;;9.00;8.70;;;20.40;99.90;;;;;;4992412;28;20229;-80
2023/08/14 03:44:36;;;;;;;8.85;8.55;;;20.30;99.90;;;;;;4999916;28;20228;-79
2023/08/14 03:47:04;;;;;;;8.82;8.52;;;20.40;99.90;;;;;;5001401;28;20797;-81
2023/08/14 03:49:31;;;;;;;8.80;8.50;;;20.30;99.90;;;;;;5001346;28;20229;-80
2023/08/14 03:51:58;;;;;;;8.98;8.68;;;20.40;99.90;;;;;;5001881;28;20235;-80
2023/08/14 03:54:25;;;;;;;9.07;8.77;;;20.40;99.90;;;;;;5000854;28;20300;-80
2023/08/14 03:56:52;;;;;;;9.05;8.75;;;20.40;99.90;;;;;;5000706;28;20240;-80
2023/08/14 03:59:19;;;;;;;9.23;8.93;;;20.30;99.90;;;;;;5001156;28;20228;-80
2023/08/14 04:01:48;;;;;;;9.07;8.77;;;20.30;99.90;;;;;;5000423;28;20239;-79
2023/08/14 04:04:15;;;;;;;9.10;8.80;;;20.20;99.90;;;;;;5001002;28;20236;-79
2023/08/14 04:06:44;;;;;;;9.00;8.70;;;20.20;99.90;;;;;;5001682;28;20328;-80
2023/08/14 04:09:11;;;;;;;8.80;8.50;;;20.20;99.90;;;;;;5001542;28;20244;-80
2023/08/14 04:11:38;;;;;;;8.88;8.57;;;20.30;99.90;;;;;;5002191;28;20301;-80
2023/08/14 04:14:05;;;;;;;8.60;8.40;;;20.30;99.90;;;;;;5007638;28;20281;-80
2023/08/14 04:16:43;;;;;;;8.80;8.50;;;20.30;99.90;;;;;;5009489;28;20323;-80
2023/08/14 04:19:14;;;;;;;8.80;8.50;;;20.40;99.90;;;;;;4999913;28;20243;-80
2023/08/14 04:21:42;;;;;;;8.50;8.30;;;20.30;99.90;;;;;;5001408;28;20229;-80
2023/08/14 04:24:09;;;;;;;9.10;8.80;;;20.20;99.90;;;;;;5001881;28;20300;-80
2023/08/14 04:26:37;;;;;;;8.85;8.55;;;20.10;99.90;;;;;;5001743;28;20288;-80
2023/08/14 04:29:06;;;;;;;9.13;8.82;;;20.10;99.90;;;;;;5001969;28;20229;-80
2023/08/14 04:31:33;;;;;;;8.80;8.50;;;20.00;99.90;;;;;;5000674;28;20239;-80
2023/08/14 04:34:01;;;;;;;8.75;8.45;;;20.00;99.90;;;;;;5001789;28;20355;-80
2023/08/14 04:36:30;;;;;;;8.60;8.40;;;20.10;99.90;;;;;;5003579;28;20335;-80
2023/08/14 04:38:57;;;;;;;8.65;8.40;;;20.00;99.90;;;;;;5004325;28;20229;-80
2023/08/14 04:41:26;;;;;;;8.77;8.48;;;20.10;99.90;;;;;;5004386;28;20271;-80
2023/08/14 04:43:53;;;;;;;8.70;8.40;;;20.00;99.90;;;;;;5009758;28;20248;-79
2023/08/14 04:46:30;;;;;;;8.60;8.40;;;20.00;99.90;;;;;;5015960;28;20284;-81
2023/08/14 04:48:58;;;;;;;8.30;8.10;;;19.90;99.90;;;;;;5018555;28;20228;-81
2023/08/14 04:51:25;;;;;;;8.43;8.23;;;19.90;99.90;;;;;;5012358;28;20237;-81
2023/08/14 04:53:54;;;;;;;8.90;8.60;;;19.90;99.90;;;;;;5003187;28;20264;-83
2023/08/14 04:56:22;;;;;;;8.80;8.50;;;19.90;99.90;;;;;;4995724;28;20277;-80
2023/08/14 04:58:49;;;;;;;8.55;8.35;;;19.90;99.90;;;;;;4993935;28;20293;-80
2023/08/14 05:01:16;;;;;;;8.60;8.40;;;19.90;99.90;;;;;;4991593;28;20261;-79
2023/08/14 05:03:43;;;;;;;8.57;8.35;;;19.90;99.90;;;;;;4996155;28;20229;-81
2023/08/14 05:06:11;;;;;;;8.30;8.10;;;19.90;99.90;;;;;;4991802;28;20285;-79
2023/08/14 05:08:38;;;;;;;8.50;8.30;;;19.90;99.90;;;;;;4989356;28;20245;-81
2023/08/14 05:11:07;;;;;;;8.40;8.20;;;19.90;99.90;;;;;;4992113;28;20229;-80
2023/08/14 05:13:34;;;;;;;8.50;8.30;;;20.00;99.90;;;;;;4992019;28;20252;-80
2023/08/14 05:16:02;;;;;;;8.35;8.15;;;19.90;99.90;;;;;;4992129;28;20257;-80
2023/08/14 05:18:29;;;;;;;8.40;8.20;;;19.90;99.90;;;;;;4991767;28;20257;-80
2023/08/14 05:20:56;;;;;;;8.30;8.10;;;19.90;99.90;;;;;;4991523;28;20233;-80
2023/08/14 05:23:23;;;;;;;8.30;8.10;;;19.90;99.90;;;;;;4990190;28;20225;-80
2023/08/14 05:25:50;;;;;;;8.30;8.10;;;20.00;99.90;;;;;;4985015;28;20327;-79
2023/08/14 05:28:18;;;;;;;8.20;8.00;;;20.00;99.90;;;;;;4982657;28;20285;-79
2023/08/14 05:30:46;;;;;;;8.10;7.90;;;20.10;99.90;;;;;;4982233;28;20238;-81
2023/08/14 05:33:14;;;;;;;8.18;7.97;;;20.10;99.90;;;;;;4996367;28;20229;-80
2023/08/14 05:35:41;;;;;;;8.40;8.20;;;20.10;99.90;;;;;;5002016;28;20237;-80
2023/08/14 05:38:08;;;;;;;8.30;8.10;;;20.10;99.90;;;;;;5001947;28;20237;-80
2023/08/14 05:40:35;;;;;;;8.20;8.00;;;20.10;99.90;;;;;;5002035;28;20233;-80
2023/08/14 05:43:04;;;;;;;8.40;8.20;;;20.00;99.90;;;;;;5000881;28;20239;-80
2023/08/14 05:45:33;;;;;;;8.40;8.20;;;20.00;99.90;;;;;;5001052;28;20264;-80
2023/08/14 05:48:01;;;;;;;8.30;8.10;;;20.00;99.90;;;;;;5004395;28;20234;-80
2023/08/14 05:50:29;;;;;;;8.20;8.00;;;20.00;99.90;;;;;;5003884;28;20229;-80
2023/08/14 05:52:56;;;;;;;8.20;8.00;;;19.90;99.90;;;;;;5003636;28;20236;-80
2023/08/14 05:55:24;;;;;;;8.02;7.82;;;19.90;99.90;;;;;;5005071;28;20243;-80
2023/08/14 05:57:51;;;;;;;8.00;7.80;;;19.90;99.90;;;;;;5013050;28;20228;-80
2023/08/14 06:00:19;;;;;;;8.05;7.85;;;19.80;99.90;;;;;;5007084;28;20232;-80
2023/08/14 06:02:48;;;;;;;8.10;7.90;;;19.80;99.90;;;;;;5004906;28;20384;-79
2023/08/14 06:05:15;;;;;;;7.80;7.60;;;19.80;99.90;;;;;;5003375;28;20233;-80
2023/08/14 06:07:42;;;;;;;7.88;7.68;;;19.80;99.90;;;;;;5002835;28;20262;-80
2023/08/14 06:10:10;;;;;;;7.90;7.70;;;19.80;99.90;;;;;;5002352;28;20235;-80
2023/08/14 06:12:37;;;;;;;8.13;7.93;;;19.80;99.90;;;;;;5002062;28;20291;-79
2023/08/14 06:15:06;;;;;;;7.90;7.70;;;19.80;99.90;;;;;;5001916;28;20797;-79
2023/08/14 06:17:33;;;;;;;8.00;7.80;;;19.80;99.90;;;;;;5002029;28;20237;-80
2023/08/14 06:20:03;;;;;;;7.90;7.70;;;19.80;99.90;;;;;;5001583;28;20228;-80
2023/08/14 06:22:30;;;;;;;8.15;7.95;;;19.80;99.90;;;;;;5001267;28;20320;-80
2023/08/14 06:24:57;;;;;;;7.95;7.75;;;19.90;99.90;;;;;;5001433;28;20236;-80
2023/08/14 06:27:25;;;;;;;7.78;7.57;;;20.00;99.90;;;;;;5002227;28;20300;-80
2023/08/14 06:29:52;;;;;;;8.00;7.80;;;20.00;99.90;;;;;;5001673;28;20285;-80
2023/08/14 06:32:19;;;;;;;7.93;7.72;;;20.10;99.90;;;;;;5001144;28;20329;-79
2023/08/14 06:34:46;;;;;;;7.60;7.40;;;20.30;99.90;;;;;;4994573;28;20247;-80
2023/08/14 06:37:15;;;;;;;7.50;7.30;;;20.40;99.90;;;;;;4985696;28;20272;-80
2023/08/14 06:39:42;;;;;;;7.60;7.40;;;20.40;99.90;;;;;;5001705;28;20372;-80
2023/08/14 06:42:09;;;;;;;7.60;7.40;;;20.50;99.90;;;;;;5001489;28;20293;-80
2023/08/14 06:44:36;;;;;;;7.80;7.60;;;20.50;99.90;;;;;;5002257;28;20232;-82
2023/08/14 06:47:03;;;;;;;7.70;7.50;;;20.50;99.90;;;;;;5001805;28;20234;-80
2023/08/14 06:49:30;;;;;;;7.80;7.60;;;20.40;99.90;;;;;;5001670;28;20235;-80
2023/08/14 06:51:57;;;;;;;7.90;7.70;;;20.50;99.90;;;;;;5000315;28;20316;-80
2023/08/14 06:54:26;;;;;;;7.70;7.50;;;20.50;99.90;;;;;;5000345;28;20283;-80
2023/08/14 06:56:53;;;;;;;7.70;7.50;;;20.40;99.90;;;;;;5000433;28;20320;-80
2023/08/14 06:59:20;;;;;;;7.78;7.57;;;20.30;99.90;;;;;;5001486;28;20316;-80
2023/08/14 07:01:48;;;;;;;8.10;7.90;;;20.40;99.90;;;;;;5001457;28;20300;-79
2023/08/14 07:04:15;;;;;;;8.15;7.95;;;20.40;99.90;;;;;;5001324;28;20335;-79
2023/08/14 07:06:42;;;;;;;7.70;7.50;;;20.40;99.90;;;;;;5003133;28;20228;-80
2023/08/14 07:09:10;;;;;;;7.90;7.70;;;20.60;99.90;;;;;;5003326;28;20248;-80
2023/08/14 07:11:40;;;;;;;8.00;7.80;;;20.70;99.90;;;;;;5003357;28;20221;-82
2023/08/14 07:14:08;;;;;;;7.90;7.70;;;20.90;99.90;;;;;;5003194;28;20243;-81
2023/08/14 07:16:36;;;;;;;8.10;7.90;;;21.00;99.90;;;;;;5002490;28;20249;-80
2023/08/14 07:19:04;;;;;;;7.95;7.75;;;21.00;99.90;;;;;;5005552;28;20249;-80
2023/08/14 07:21:31;;;;;;;7.80;7.60;;;21.10;99.90;;;;;;5002588;28;21042;-81
2023/08/14 07:23:58;;;;;;;7.90;7.70;;;21.30;99.90;;;;;;5002661;28;20247;-80
2023/08/14 07:26:25;;;;;;;8.40;8.20;;;21.40;99.90;;;;;;5001674;28;20292;-81
2023/08/14 07:28:54;;;;;;;8.25;8.05;;;21.50;99.90;;;;;;5002648;28;20237;-81
2023/08/14 07:31:24;;;;;;;8.10;7.90;;;21.60;99.90;;;;;;5004209;28;20272;-81
2023/08/14 07:33:51;;;;;;;8.65;8.45;;;21.70;99.90;;;;;;5001642;28;20237;-81
2023/08/14 07:36:18;;;;;;;9.05;8.75;;;21.70;99.90;;;;;;5002236;28;20339;-81
2023/08/14 07:38:45;;;;;;;9.25;8.95;;;21.70;99.90;;;;;;5002738;28;20233;-81
2023/08/14 07:41:13;;;;;;;9.43;9.13;;;21.90;99.90;;;;;;5006347;28;20280;-81
2023/08/14 07:43:41;;;;;;;9.90;9.60;;;22.10;99.90;;;;;;5003239;28;20251;-81
2023/08/14 07:46:11;;;;;;;9.65;9.35;;;22.20;99.90;;;;;;5003533;28;20237;-81
2023/08/14 07:48:39;;;;;;;10.10;9.80;;;22.30;99.90;;;;;;5003164;28;20228;-81
2023/08/14 07:51:06;;;;;;;10.02;9.73;;;22.40;99.90;;;;;;5003478;28;20233;-81
2023/08/14 07:53:33;;;;;;;10.40;10.10;;;22.50;99.90;;;;;;5002568;28;20298;-81
2023/08/14 07:56:00;;;;;;;10.48;10.18;;;22.60;99.90;;;;;;5001784;28;20235;-80
2023/08/14 07:58:27;;;;;;;10.65;10.35;;;22.80;99.90;;;;;;5002057;28;21196;-80
2023/08/14 08:00:55;;;;;;;11.13;10.73;;;22.90;99.90;;;;;;5002481;28;20216;-80
2023/08/14 08:03:24;;;;;;;11.00;10.70;;;23.10;99.90;;;;;;5003793;28;20411;-78
2023/08/14 08:05:51;;;;;;;10.63;10.32;;;23.30;99.90;;;;;;5002453;28;20236;-80
2023/08/14 08:08:21;;;;;;;10.50;10.20;;;23.50;99.90;;;;;;5000879;28;20233;-79
2023/08/14 08:10:48;;;;;;;10.35;10.05;;;23.60;99.90;;;;;;4997433;28;20243;-77
2023/08/14 08:13:15;;;;;;;10.40;10.10;;;23.70;99.90;;;;;;4996743;28;20232;-77
2023/08/14 08:15:42;;;;;;;10.70;10.40;;;23.80;99.90;;;;;;4992444;28;20263;-77
2023/08/14 08:18:09;;;;;;;10.80;10.50;;;23.90;99.90;;;;;;4995640;28;20247;-77
2023/08/14 08:20:37;;;;;;;11.10;10.80;;;23.90;99.90;;;;;;4996212;28;20229;-77
2023/08/14 08:23:05;;;;;;;10.77;10.48;;;24.00;99.90;;;;;;4996059;28;20237;-77
2023/08/14 08:25:32;;;;;;;11.13;10.82;;;24.00;99.90;;;;;;4996472;28;20240;-77
2023/08/14 08:27:59;;;;;;;11.00;10.70;;;24.00;99.90;;;;;;4995818;28;20315;-78
2023/08/14 08:30:26;;;;;;;11.00;10.70;;;24.00;99.90;;;;;;4996239;28;20229;-76
2023/08/14 08:32:56;;;;;;;11.00;10.70;;;24.10;99.90;;;;;;4994982;28;20241;-76
2023/08/14 08:35:23;;;;;;;10.98;10.68;;;24.20;99.90;;;;;;4984179;28;20293;-76
2023/08/14 08:37:51;;;;;;;11.07;10.77;;;24.30;99.90;;;;;;5003270;28;20247;-75
2023/08/14 08:40:18;;;;;;;10.93;10.63;;;24.40;99.90;;;;;;5007584;28;20225;-76
2023/08/14 08:42:46;;;;;;;11.30;10.90;;;24.50;99.90;;;;;;4998463;28;21045;-75
2023/08/14 08:45:17;;;;;;;11.30;10.90;;;24.60;99.90;;;;;;4996145;28;20328;-75
2023/08/14 08:47:49;;;;;;;10.88;10.57;;;24.70;99.90;;;;;;4995304;28;20726;-76
2023/08/14 08:50:19;;;;;;;11.45;11.05;;;25.00;99.90;;;;;;4994640;28;20303;-75
2023/08/14 08:52:46;;;;;;;11.45;11.05;;;25.10;99.90;;;;;;4987728;28;20236;-76
2023/08/14 08:55:15;;;;;;;11.10;10.80;;;25.20;99.90;;;;;;4983349;28;20229;-76
2023/08/14 08:57:42;;;;;;;11.05;10.75;;;25.30;99.90;;;;;;4986164;28;20251;-77
2023/08/14 09:00:14;;;;;;;11.05;10.75;;;25.50;99.90;;;;;;4995283;28;20316;-77
2023/08/14 09:02:41;;;;;;;10.98;10.68;;;25.60;99.90;;;;;;4995596;28;20236;-77
2023/08/14 09:05:08;;;;;;;10.93;10.63;;;25.90;99.90;;;;;;4995506;28;20369;-76
2023/08/14 09:07:38;;;;;;;11.02;10.73;;;26.10;99.90;;;;;;5004458;28;20243;-77
2023/08/14 09:10:07;;;;;;;10.80;10.50;;;26.40;99.90;;;;;;4992720;28;20237;-77
2023/08/14 09:12:36;;;;;;;11.00;10.70;;;26.60;99.90;;;;;;5014085;28;20232;-77
2023/08/14 09:15:06;;;;;;;10.90;10.60;;;26.60;99.90;;;;;;5014881;28;20232;-76
2023/08/14 09:17:34;;;;;;;11.00;10.70;;;26.70;99.90;;;;;;5014451;28;20236;-76
2023/08/14 09:20:01;;;;;;;11.05;10.75;;;26.80;99.90;;;;;;5005792;28;20361;-76
2023/08/14 09:22:28;;;;;;;11.70;11.30;;;26.90;99.90;;;;;;4999568;28;20229;-76
2023/08/14 09:24:56;;;;;;;11.40;11.00;;;27.10;99.90;;;;;;5000807;28;20251;-76
2023/08/14 09:27:24;;;;;;;11.57;11.18;;;27.20;99.90;;;;;;5001102;28;20228;-76
2023/08/14 09:29:55;;;;;;;11.65;11.25;;;27.40;99.90;;;;;;5000696;28;20316;-76
2023/08/14 09:32:24;;;;;;;11.55;11.15;;;27.70;99.90;;;;;;5009773;28;20239;-78
2023/08/14 09:35:00;;;;;;;11.70;11.30;;;28.00;99.90;;;;;;4999264;28;20233;-78
2023/08/14 09:37:37;;;;;;;11.57;11.18;;;28.30;99.90;;;;;;5000790;28;20240;-78
2023/08/14 09:40:15;;;;;;;11.48;11.07;;;28.40;99.90;;;;;;5000394;28;20228;-78
2023/08/14 09:42:44;;;;;;;11.82;11.43;;;28.70;99.90;;;;;;5000172;28;20239;-78
2023/08/14 09:45:14;;;;;;;11.68;11.27;;;28.90;99.90;;;;;;4995208;28;20226;-78
2023/08/14 09:47:43;;;;;;;12.00;11.60;;;29.00;99.90;;;;;;4994902;28;20256;-78
2023/08/14 09:50:11;;;;;;;11.70;11.30;;;29.20;99.90;;;;;;4999772;28;20256;-78
2023/08/14 09:52:38;;;;;;;11.45;11.07;;;29.50;99.90;;;;;;4999791;28;20229;-77
2023/08/14 09:55:06;;;;;;;11.13;10.82;;;29.80;99.90;;;;;;4999636;28;20240;-79
2023/08/14 09:57:34;;;;;;;11.40;11.05;;;30.00;99.90;;;;;;4999749;28;20225;-78
2023/08/14 10:00:03;;;;;;;11.30;11.00;;;30.20;99.90;;;;;;4999769;28;20236;-79
2023/08/14 10:02:33;;;;;;;11.40;11.00;;;30.20;99.90;;;;;;4999677;28;20320;-78
2023/08/14 10:05:02;;;;;;;11.55;11.15;;;30.00;99.90;;;;;;4995968;28;20243;-77
2023/08/14 10:07:30;;;;;;;11.75;11.35;;;29.90;99.90;;;;;;4991032;28;20292;-78
2023/08/14 10:10:02;;;;;;;11.38;10.98;;;29.60;99.90;;;;;;4992842;28;20229;-78
2023/08/14 10:12:39;;;;;;;11.20;10.90;;;29.60;99.90;;;;;;4999432;28;20232;-78
2023/08/14 10:15:12;;;;;;;11.50;11.10;;;29.90;99.90;;;;;;4995350;28;20243;-78
2023/08/14 10:17:50;;;;;;;11.60;11.20;;;30.10;99.90;;;;;;4987379;28;20247;-78
2023/08/14 10:20:22;;;;;;;11.23;10.93;;;30.10;99.90;;;;;;4998743;28;20240;-78
2023/08/14 10:22:52;;;;;;;11.40;11.00;;;29.90;99.90;;;;;;4998163;28;20248;-79
2023/08/14 10:25:22;;;;;;;11.45;11.05;;;29.90;99.90;;;;;;4999194;28;20236;-78
2023/08/14 10:27:53;;;;;;;11.13;10.82;;;29.90;99.90;;;;;;5009340;28;20252;-77
2023/08/14 10:30:23;;;;;;;11.10;10.80;;;29.80;99.90;;;;;;4993046;28;20234;-77
2023/08/14 10:32:53;;;;;;;11.05;10.75;;;29.80;99.90;;;;;;4993151;28;20233;-77
2023/08/14 10:35:23;;;;;;;11.18;10.88;;;29.80;99.90;;;;;;4998866;28;20243;-77
2023/08/14 10:37:51;;;;;;;11.20;10.90;;;29.90;99.90;;;;;;4998153;28;20300;-78
2023/08/14 10:40:21;;;;;;;11.70;11.30;;;29.90;99.90;;;;;;4998793;28;20233;-78
2023/08/14 10:42:55;;;;;;;11.70;11.30;;;30.00;99.90;;;;;;4997970;28;20229;-78
2023/08/14 10:45:25;;;;;;;11.45;11.05;;;30.00;99.90;;;;;;4998615;28;20222;-78
2023/08/14 10:47:54;;;;;;;11.40;11.07;;;30.20;99.90;;;;;;4999239;28;20331;-78
2023/08/14 10:50:25;;;;;;;11.73;11.32;;;30.20;99.90;;;;;;4997886;28;20229;-78
2023/08/14 10:52:54;;;;;;;11.38;10.98;;;30.50;99.90;;;;;;4998656;28;20264;-79
2023/08/14 10:55:27;;;;;;;11.55;11.15;;;30.90;99.90;;;;;;5001169;28;20235;-79
2023/08/14 10:57:55;;;;;;;11.18;10.88;;;31.10;99.90;;;;;;4999340;28;20240;-78
2023/08/14 11:00:24;;;;;;;11.55;11.15;;;31.10;99.90;;;;;;4998230;28;20213;-78
2023/08/14 11:03:05;;;;;;;11.20;10.90;;;31.00;99.90;;;;;;4994787;28;20334;-78
2023/08/14 11:05:37;;;;;;;11.15;10.85;;;31.10;99.90;;;;;;4995854;28;20233;-77
2023/08/14 11:08:07;;;;;;;10.60;10.30;;;31.30;99.90;;;;;;4999070;28;20236;-78
2023/08/14 11:10:35;;;;;;;10.55;10.25;;;31.40;99.90;;;;;;5007589;28;20323;-79
2023/08/14 11:13:06;;;;;;;10.57;10.27;;;31.50;99.90;;;;;;5003510;28;20232;-78
2023/08/14 11:15:35;;;;;;;10.60;10.30;;;31.60;99.90;;;;;;5001268;28;20293;-79
2023/08/14 11:18:11;;;;;;;10.68;10.38;;;31.80;99.90;;;;;;5000861;28;20256;-79
2023/08/14 11:20:41;;;;;;;10.90;10.60;;;32.10;99.90;;;;;;5001019;28;20248;-80
2023/08/14 11:23:11;;;;;;;11.55;11.15;;;32.30;99.90;;;;;;5006264;28;20233;-78
2023/08/14 11:25:41;;;;;;;11.40;11.05;;;32.40;99.90;;;;;;5004454;28;20232;-78
2023/08/14 11:28:08;;;;;;;11.25;10.95;;;32.60;99.90;;;;;;5006602;28;20240;-79
2023/08/14 11:30:38;;;;;;;11.27;10.98;;;32.80;99.90;;;;;;5004076;28;20233;-79
2023/08/14 11:33:09;;;;;;;11.20;10.90;;;32.70;99.90;;;;;;5002150;28;20240;-80
2023/08/14 11:35:36;;;;;;;11.20;10.90;;;32.60;99.90;;;;;;4987044;28;20244;-79
2023/08/14 11:38:08;;;;;;;10.90;10.60;;;32.80;99.90;;;;;;4981178;28;20242;-79
2023/08/14 11:40:40;;;;;;;11.05;10.75;;;32.90;99.90;;;;;;4982799;28;20245;-80
2023/08/14 11:43:09;;;;;;;10.80;10.50;;;33.20;99.90;;;;;;4982878;28;20237;-80
2023/08/14 11:45:37;;;;;;;11.10;10.80;;;33.10;99.90;;;;;;4983385;28;20277;-80
2023/08/14 11:48:09;;;;;;;10.95;10.65;;;33.10;99.90;;;;;;5000970;28;20240;-79
2023/08/14 11:50:36;;;;;;;11.20;10.90;;;33.40;99.90;;;;;;5000837;28;20223;-80
2023/08/14 11:53:11;;;;;;;11.18;10.88;;;33.60;99.90;;;;;;5000043;28;20315;-79
2023/08/14 11:55:38;;;;;;;11.05;10.75;;;33.80;99.90;;;;;;5000975;28;20240;-79
2023/08/14 11:58:05;;;;;;;11.13;10.82;;;33.90;99.90;;;;;;5001837;28;20236;-80
2023/08/14 12:00:33;;;;;;;10.90;10.60;;;33.90;99.90;;;;;;5003388;28;20237;-80
2023/08/14 12:03:00;;;;;;;10.90;10.60;;;33.90;99.90;;;;;;5032185;28;20251;-79
2023/08/14 12:05:29;;;;;;;10.80;10.50;;;34.00;99.90;;;;;;5026580;28;20224;-80
2023/08/14 12:08:01;;;;;;;10.98;10.68;;;33.90;99.90;;;;;;5032163;28;20259;-80
2023/08/14 12:10:33;;;;;;;10.82;10.52;;;33.80;99.90;;;;;;5034602;28;20317;-81
2023/08/14 12:13:02;;;;;;;10.95;10.65;;;33.60;99.90;;;;;;5026166;28;20255;-80
2023/08/14 12:15:31;;;;;;;10.75;10.45;;;33.60;99.90;;;;;;5023968;28;20240;-80
2023/08/14 12:17:59;;;;;;;10.90;10.60;;;34.00;99.90;;;;;;5021894;28;20244;-79
2023/08/14 12:20:27;;;;;;;11.20;10.90;;;34.20;99.90;;;;;;5022437;28;20228;-80
2023/08/14 12:23:11;;;;;;;10.93;10.63;;;34.30;99.90;;;;;;5027702;28;20303;-80
2023/08/14 12:25:39;;;;;;;11.00;10.70;;;34.60;99.90;;;;;;5021800;28;20260;-80
2023/08/14 12:28:07;;;;;;;10.85;10.55;;;34.80;99.90;;;;;;5002511;28;20233;-82
2023/08/14 12:30:34;;;;;;;10.95;10.65;;;34.90;99.90;;;;;;5004516;28;20217;-83
2023/08/14 12:33:01;;;;;;;10.63;10.32;;;34.90;99.90;;;;;;5007852;28;20228;-81
2023/08/14 12:35:35;;;;;;;10.70;10.40;;;34.70;99.90;;;;;;5010691;28;20244;-82
2023/08/14 12:38:02;;;;;;;10.70;10.40;;;34.80;99.90;;;;;;5009982;28;20332;-79
2023/08/14 12:40:29;;;;;;;10.63;10.32;;;34.80;99.90;;;;;;5007664;28;20240;-78
2023/08/14 12:42:56;;;;;;;11.40;11.10;;;34.70;99.90;;;;;;5002282;28;20494;-78
2023/08/14 12:45:24;;;;;;;11.20;10.90;;;34.60;99.90;;;;;;5000391;28;20322;-79
2023/08/14 12:47:54;;;;;;;11.20;10.90;;;34.70;99.90;;;;;;5000138;28;20236;-78
2023/08/14 12:50:21;;;;;;;11.10;10.80;;;34.70;99.90;;;;;;4999895;28;20814;-79
2023/08/14 12:52:52;;;;;;;11.25;10.95;;;34.90;99.90;;;;;;4999436;28;20300;-79